createdAt,value
2017-09-23T00:00:07.036Z,14.03
2017-09-23T00:02:34.624Z,15.93
2017-09-23T00:05:02.162Z,16.80
2017-09-23T00:07:29.729Z,14.83
2017-09-23T00:09:57.355Z,16.43
2017-09-23T00:12:24.912Z,15.00
2017-09-23T00:14:52.480Z,15.73
2017-09-23T00:17:20.057Z,14.97
2017-09-23T00:19:47.620Z,14.57
2017-09-23T00:22:15.229Z,14.57
2017-09-23T00:24:42.792Z,15.13
2017-09-23T00:27:10.381Z,14.73
2017-09-23T00:29:37.949Z,13.47
2017-09-23T00:32:05.514Z,13.50
2017-09-23T00:34:33.105Z,13.00
2017-09-23T00:37:01.469Z,11.90
2017-09-23T00:39:29.799Z,14.10
2017-09-23T00:41:57.352Z,14.30
2017-09-23T00:44:24.928Z,14.50
2017-09-23T00:46:52.484Z,14.13
2017-09-23T00:49:20.064Z,13.10
2017-09-23T00:51:47.625Z,13.47
2017-09-23T00:54:15.201Z,13.30
2017-09-23T00:56:43.530Z,12.03
2017-09-23T00:59:11.079Z,13.00
2017-09-23T01:01:38.632Z,11.50
2017-09-23T01:04:06.199Z,12.70
2017-09-23T01:06:33.780Z,11.57
2017-09-23T01:09:01.333Z,13.00
2017-09-23T01:11:28.886Z,13.37
2017-09-23T01:13:56.453Z,12.57
2017-09-23T01:16:23.988Z,14.30
2017-09-23T01:18:51.535Z,14.50
2017-09-23T01:21:19.103Z,15.20
2017-09-23T01:23:46.653Z,14.23
2017-09-23T01:26:14.232Z,13.33
2017-09-23T01:28:41.783Z,15.00
2017-09-23T01:31:09.327Z,15.07
2017-09-23T01:33:36.901Z,14.30
2017-09-23T01:36:04.452Z,15.27
2017-09-23T01:38:32.032Z,14.20
2017-09-23T01:40:59.569Z,15.37
2017-09-23T01:43:27.144Z,18.03
2017-09-23T01:45:54.701Z,15.40
2017-09-23T01:48:22.308Z,16.37
2017-09-23T01:50:50.621Z,16.90
2017-09-23T01:53:18.173Z,17.10
2017-09-23T01:55:45.741Z,15.70
2017-09-23T01:58:13.296Z,16.37
2017-09-23T02:00:40.865Z,16.63
2017-09-23T02:03:08.401Z,18.07
2017-09-23T02:05:35.968Z,16.00
2017-09-23T02:08:03.535Z,15.47
2017-09-23T02:10:31.184Z,20.10
2017-09-23T02:12:58.758Z,18.13
2017-09-23T02:15:26.309Z,18.50
2017-09-23T02:17:54.263Z,17.40
2017-09-23T02:20:21.829Z,14.97
2017-09-23T02:22:49.477Z,15.63
2017-09-23T02:25:17.053Z,17.90
2017-09-23T02:27:44.620Z,16.93
2017-09-23T02:30:12.198Z,16.57
2017-09-23T02:32:39.762Z,16.90
2017-09-23T02:35:07.333Z,17.23
2017-09-23T02:37:34.884Z,17.43
2017-09-23T02:40:02.446Z,15.53
2017-09-23T02:42:30.019Z,16.80
2017-09-23T02:44:58.361Z,17.27
2017-09-23T02:47:25.935Z,18.60
2017-09-23T02:49:53.488Z,16.67
2017-09-23T02:52:21.053Z,14.40
2017-09-23T02:54:48.625Z,14.67
2017-09-23T02:57:16.219Z,13.70
2017-09-23T02:59:43.764Z,15.47
2017-09-23T03:02:12.080Z,13.07
2017-09-23T03:04:39.659Z,14.30
2017-09-23T03:07:07.216Z,14.77
2017-09-23T03:09:34.801Z,13.57
2017-09-23T03:12:02.361Z,15.13
2017-09-23T03:14:30.692Z,14.77
2017-09-23T03:16:58.269Z,14.50
2017-09-23T03:19:25.849Z,15.27
2017-09-23T03:21:53.426Z,14.13
2017-09-23T03:24:21.741Z,15.37
2017-09-23T03:26:49.329Z,15.10
2017-09-23T03:29:16.871Z,16.63
2017-09-23T03:31:44.400Z,16.10
2017-09-23T03:34:11.965Z,15.27
2017-09-23T03:36:39.517Z,18.07
2017-09-23T03:39:07.091Z,16.37
2017-09-23T03:41:34.668Z,16.83
2017-09-23T03:44:02.216Z,16.03
2017-09-23T03:46:29.784Z,16.27
2017-09-23T03:48:57.349Z,16.30
2017-09-23T03:51:24.915Z,17.20
2017-09-23T03:53:52.504Z,16.93
2017-09-23T03:56:20.823Z,16.17
2017-09-23T03:58:48.387Z,16.43
2017-09-23T04:01:15.968Z,16.57
2017-09-23T04:03:44.293Z,18.00
2017-09-23T04:06:11.868Z,15.60
2017-09-23T04:08:39.416Z,16.00
2017-09-23T04:11:06.991Z,15.67
2017-09-23T04:13:34.543Z,19.93
2017-09-23T04:16:02.111Z,17.43
2017-09-23T04:18:29.768Z,16.07
2017-09-23T04:20:57.317Z,17.27
2017-09-23T04:23:24.916Z,16.10
2017-09-23T04:25:52.465Z,16.00
2017-09-23T04:28:20.017Z,16.63
2017-09-23T04:30:47.573Z,17.17
2017-09-23T04:33:15.082Z,15.83
2017-09-23T04:35:43.377Z,18.37
2017-09-23T04:38:10.884Z,17.40
2017-09-23T04:40:38.448Z,13.17
2017-09-23T04:43:05.951Z,16.37
2017-09-23T04:45:33.447Z,15.83
2017-09-23T04:48:00.991Z,17.60
2017-09-23T04:50:28.494Z,16.53
2017-09-23T04:52:56.802Z,17.07
2017-09-23T04:55:24.304Z,15.50
2017-09-23T04:57:51.864Z,15.67
2017-09-23T05:00:19.362Z,18.00
2017-09-23T05:02:47.628Z,17.80
2017-09-23T05:05:15.918Z,19.13
2017-09-23T05:07:43.416Z,14.90
2017-09-23T05:10:10.946Z,17.93
2017-09-23T05:12:38.448Z,14.00
2017-09-23T05:15:06.716Z,20.87
2017-09-23T05:17:34.232Z,17.77
2017-09-23T05:20:01.732Z,14.43
2017-09-23T05:22:29.257Z,16.30
2017-09-23T05:24:56.939Z,15.87
2017-09-23T05:27:24.449Z,15.40
2017-09-23T05:29:52.732Z,15.77
2017-09-23T05:32:20.228Z,14.47
2017-09-23T05:34:47.755Z,15.43
2017-09-23T05:37:15.311Z,16.07
2017-09-23T05:39:42.811Z,16.73
2017-09-23T05:42:10.309Z,15.57
2017-09-23T05:44:38.607Z,13.87
2017-09-23T05:47:06.112Z,15.33
2017-09-23T05:49:33.635Z,20.00
2017-09-23T05:52:01.140Z,17.60
2017-09-23T05:54:29.440Z,14.50
2017-09-23T05:56:56.964Z,15.87
2017-09-23T05:59:24.533Z,13.80
2017-09-23T06:01:52.030Z,15.90
2017-09-23T06:04:19.553Z,17.13
2017-09-23T06:06:47.843Z,15.47
2017-09-23T06:09:15.393Z,15.33
2017-09-23T06:11:43.656Z,17.30
2017-09-23T06:14:11.916Z,15.67
2017-09-23T06:16:39.444Z,17.77
2017-09-23T06:19:06.943Z,16.33
2017-09-23T06:21:34.465Z,15.87
2017-09-23T06:24:01.972Z,17.37
2017-09-23T06:26:30.309Z,15.77
2017-09-23T06:28:57.920Z,16.87
2017-09-23T06:31:25.436Z,15.97
2017-09-23T06:33:52.994Z,17.37
2017-09-23T06:36:20.505Z,14.17
2017-09-23T06:38:48.075Z,14.67
2017-09-23T06:41:15.597Z,17.30
2017-09-23T06:43:43.878Z,18.10
2017-09-23T06:46:12.181Z,17.50
2017-09-23T06:48:39.684Z,15.83
2017-09-23T06:51:08.725Z,17.53
2017-09-23T06:53:36.221Z,15.93
2017-09-23T06:56:03.760Z,18.67
2017-09-23T06:58:31.293Z,18.60
2017-09-23T07:00:58.789Z,17.80
2017-09-23T07:03:26.429Z,14.07
2017-09-23T07:05:53.952Z,16.27
2017-09-23T07:08:22.235Z,15.93
2017-09-23T07:10:49.776Z,15.67
2017-09-23T07:13:18.068Z,16.40
2017-09-23T07:15:45.563Z,18.67
2017-09-23T07:18:13.117Z,15.90
2017-09-23T07:20:40.605Z,18.20
2017-09-23T07:23:08.889Z,15.10
2017-09-23T07:25:36.379Z,17.90
2017-09-23T07:28:03.911Z,17.80
2017-09-23T07:30:32.186Z,19.10
2017-09-23T07:33:00.498Z,17.60
2017-09-23T07:35:28.034Z,18.13
2017-09-23T07:37:56.300Z,16.90
2017-09-23T07:40:24.600Z,15.97
2017-09-23T07:42:52.102Z,15.90
2017-09-23T07:45:19.628Z,16.30
2017-09-23T07:47:47.154Z,14.93
2017-09-23T07:50:15.456Z,15.60
2017-09-23T07:52:43.001Z,16.83
2017-09-23T07:55:10.509Z,18.70
2017-09-23T07:57:38.037Z,17.77
2017-09-23T08:00:05.557Z,15.83
2017-09-23T08:02:33.833Z,16.80
2017-09-23T08:05:02.126Z,16.77
2017-09-23T08:07:29.649Z,18.70
2017-09-23T08:09:57.190Z,15.73
2017-09-23T08:12:24.680Z,17.47
2017-09-23T08:14:52.977Z,15.20
2017-09-23T08:17:20.501Z,20.43
2017-09-23T08:19:48.014Z,16.67
2017-09-23T08:22:15.572Z,14.00
2017-09-23T08:24:43.073Z,16.70
2017-09-23T08:27:10.586Z,15.90
2017-09-23T08:29:38.122Z,18.33
2017-09-23T08:32:05.634Z,16.73
2017-09-23T08:34:33.264Z,17.80
2017-09-23T08:37:00.823Z,17.40
2017-09-23T08:39:28.361Z,15.57
2017-09-23T08:41:55.877Z,14.63
2017-09-23T08:44:23.403Z,17.23
2017-09-23T08:46:50.917Z,19.90
2017-09-23T08:49:19.200Z,18.90
2017-09-23T08:51:46.736Z,18.87
2017-09-23T08:54:15.006Z,18.83
2017-09-23T08:56:43.322Z,19.70
2017-09-23T08:59:10.849Z,17.10
2017-09-23T09:01:39.131Z,20.87
2017-09-23T09:04:07.425Z,17.70
2017-09-23T09:06:34.933Z,19.83
2017-09-23T09:09:02.480Z,17.00
2017-09-23T09:11:29.992Z,17.20
2017-09-23T09:13:57.510Z,18.93
2017-09-23T09:16:25.820Z,17.50
2017-09-23T09:18:53.389Z,18.10
2017-09-23T09:21:20.892Z,18.10
2017-09-23T09:23:48.426Z,18.00
2017-09-23T09:26:15.969Z,20.33
2017-09-23T09:28:43.472Z,17.30
2017-09-23T09:31:11.017Z,20.13
2017-09-23T09:33:38.525Z,18.83
2017-09-23T09:36:06.052Z,19.87
2017-09-23T09:38:33.554Z,18.53
2017-09-23T09:41:01.080Z,19.50
2017-09-23T09:43:29.382Z,19.03
2017-09-23T09:45:56.898Z,19.43
2017-09-23T09:48:24.432Z,18.97
2017-09-23T09:50:51.941Z,22.07
2017-09-23T09:53:20.245Z,22.33
2017-09-23T09:55:47.741Z,19.57
2017-09-23T09:58:15.262Z,20.03
2017-09-23T10:00:42.795Z,21.10
2017-09-23T10:03:10.307Z,22.13
2017-09-23T10:05:37.849Z,23.10
2017-09-23T10:08:05.351Z,20.77
2017-09-23T10:10:33.616Z,20.00
2017-09-23T10:13:01.902Z,19.67
2017-09-23T10:15:30.184Z,18.70
2017-09-23T10:17:58.484Z,19.23
2017-09-23T10:20:26.009Z,20.40
2017-09-23T10:22:54.289Z,19.97
2017-09-23T10:25:22.576Z,15.70
2017-09-23T10:27:50.085Z,16.80
2017-09-23T10:30:17.614Z,15.87
2017-09-23T10:32:45.131Z,14.20
2017-09-23T10:35:13.410Z,14.20
2017-09-23T10:37:41.705Z,12.17
2017-09-23T10:40:09.216Z,14.03
2017-09-23T10:42:36.752Z,14.20
2017-09-23T10:45:04.244Z,15.80
2017-09-23T10:47:33.273Z,15.87
2017-09-23T10:50:00.793Z,12.70
2017-09-23T10:52:28.325Z,12.27
2017-09-23T10:54:55.838Z,13.83
2017-09-23T10:57:23.363Z,11.07
2017-09-23T10:59:50.907Z,12.47
2017-09-23T11:02:18.412Z,13.10
2017-09-23T11:04:45.905Z,14.53
2017-09-23T11:07:13.429Z,11.70
2017-09-23T11:09:40.965Z,13.07
2017-09-23T11:12:09.288Z,12.10
2017-09-23T11:14:36.798Z,17.80
2017-09-23T11:17:05.082Z,14.90
2017-09-23T11:19:33.382Z,14.67
2017-09-23T11:22:00.880Z,11.70
2017-09-23T11:24:28.409Z,12.53
2017-09-23T11:26:55.921Z,11.30
2017-09-23T11:29:24.183Z,10.73
2017-09-23T11:31:51.731Z,11.73
2017-09-23T11:34:19.228Z,10.50
2017-09-23T11:36:47.523Z,9.20
2017-09-23T11:39:15.020Z,8.27
2017-09-23T11:41:42.552Z,9.33
2017-09-23T11:44:10.050Z,9.87
2017-09-23T11:46:37.544Z,8.00
2017-09-23T11:49:05.073Z,9.50
2017-09-23T11:51:33.503Z,11.30
2017-09-23T11:54:01.048Z,11.80
2017-09-23T11:56:28.557Z,10.10
2017-09-23T11:58:56.076Z,11.43
2017-09-23T12:01:23.606Z,12.40
2017-09-23T12:03:51.116Z,12.43
2017-09-23T12:06:18.658Z,10.83
2017-09-23T12:08:46.155Z,16.13
2017-09-23T12:11:14.444Z,11.17
2017-09-23T12:13:42.758Z,12.90
2017-09-23T12:16:10.267Z,12.83
2017-09-23T12:18:38.530Z,12.97
2017-09-23T12:21:06.078Z,11.93
2017-09-23T12:23:33.576Z,10.83
2017-09-23T12:26:01.109Z,11.50
2017-09-23T12:28:28.647Z,12.43
2017-09-23T12:30:56.170Z,11.13
2017-09-23T12:33:23.680Z,12.07
2017-09-23T12:35:51.221Z,11.33
2017-09-23T12:38:18.724Z,11.90
2017-09-23T12:40:46.249Z,11.50
2017-09-23T12:43:14.582Z,9.20
2017-09-23T12:45:42.089Z,10.30
2017-09-23T12:48:09.605Z,9.90
2017-09-23T12:50:37.101Z,9.77
2017-09-23T12:53:04.635Z,9.80
2017-09-23T12:55:32.144Z,9.73
2017-09-23T12:57:59.642Z,9.07
2017-09-23T13:00:27.171Z,8.73
2017-09-23T13:02:54.676Z,7.80
2017-09-23T13:05:22.211Z,8.20
2017-09-23T13:07:49.701Z,8.07
2017-09-23T13:10:17.219Z,9.60
2017-09-23T13:12:44.748Z,8.07
2017-09-23T13:15:12.248Z,8.13
2017-09-23T13:17:39.740Z,7.40
2017-09-23T13:20:08.038Z,7.70
2017-09-23T13:22:35.548Z,6.23
2017-09-23T13:25:03.063Z,8.23
2017-09-23T13:27:30.572Z,7.50
2017-09-23T13:29:58.084Z,8.03
2017-09-23T13:32:25.577Z,6.57
2017-09-23T13:34:53.104Z,7.90
2017-09-23T13:37:20.629Z,7.20
2017-09-23T13:39:48.936Z,7.63
2017-09-23T13:42:16.424Z,7.30
2017-09-23T13:44:44.428Z,8.60
2017-09-23T13:47:11.949Z,6.87
2017-09-23T13:49:39.432Z,5.80
2017-09-23T13:52:07.709Z,6.93
2017-09-23T13:54:35.991Z,6.17
2017-09-23T13:57:04.294Z,7.87
2017-09-23T13:59:31.809Z,6.73
2017-09-23T14:01:59.328Z,6.77
2017-09-23T14:04:26.837Z,7.80
2017-09-23T14:06:54.391Z,5.77
2017-09-23T14:09:22.702Z,7.07
2017-09-23T14:11:50.198Z,5.93
2017-09-23T14:14:17.724Z,5.03
2017-09-23T14:16:45.237Z,5.43
2017-09-23T14:19:13.533Z,6.27
2017-09-23T14:21:41.036Z,4.77
2017-09-23T14:24:08.644Z,5.57
2017-09-23T14:26:36.935Z,6.90
2017-09-23T14:29:04.436Z,6.20
2017-09-23T14:31:31.958Z,5.30
2017-09-23T14:33:59.473Z,4.40
2017-09-23T14:36:26.964Z,5.00
2017-09-23T14:38:54.483Z,4.83
2017-09-23T14:41:21.985Z,6.40
2017-09-23T14:43:49.522Z,6.87
2017-09-23T14:46:17.786Z,6.87
2017-09-23T14:48:46.045Z,8.27
2017-09-23T14:51:13.580Z,8.57
2017-09-23T14:53:41.073Z,8.20
2017-09-23T14:56:09.382Z,11.03
2017-09-23T14:58:36.912Z,6.80
2017-09-23T15:01:05.168Z,5.83
2017-09-23T15:03:32.738Z,5.87
2017-09-23T15:06:01.002Z,5.80
2017-09-23T15:08:28.578Z,6.10
2017-09-23T15:10:56.849Z,7.13
2017-09-23T15:13:25.136Z,8.63
2017-09-23T15:15:53.414Z,6.77
2017-09-23T15:18:21.701Z,5.90
2017-09-23T15:20:49.222Z,5.40
2017-09-23T15:23:16.776Z,6.50
2017-09-23T15:25:44.272Z,6.00
2017-09-23T15:28:11.817Z,6.53
2017-09-23T15:30:39.353Z,6.43
2017-09-23T15:33:06.840Z,7.17
2017-09-23T15:35:34.387Z,6.30
2017-09-23T15:38:02.659Z,5.73
2017-09-23T15:40:30.928Z,6.63
2017-09-23T15:42:59.220Z,6.20
2017-09-23T15:45:26.745Z,5.90
2017-09-23T15:47:54.265Z,6.00
2017-09-23T15:50:21.777Z,6.37
2017-09-23T15:52:50.067Z,5.80
2017-09-23T15:55:18.320Z,5.80
2017-09-23T15:57:45.844Z,5.87
2017-09-23T16:00:13.368Z,5.30
2017-09-23T16:02:40.884Z,6.83
2017-09-23T16:05:08.429Z,6.93
2017-09-23T16:07:35.928Z,6.13
2017-09-23T16:10:04.194Z,5.90
2017-09-23T16:12:32.484Z,6.90
2017-09-23T16:14:59.982Z,6.67
2017-09-23T16:17:27.505Z,5.90
2017-09-23T16:19:54.996Z,5.93
2017-09-23T16:22:22.555Z,5.27
2017-09-23T16:24:50.050Z,6.77
2017-09-23T16:27:18.337Z,7.23
2017-09-23T16:29:46.627Z,6.90
2017-09-23T16:32:14.125Z,7.60
2017-09-23T16:34:41.666Z,6.80
2017-09-23T16:37:09.156Z,6.77
2017-09-23T16:39:36.662Z,6.17
2017-09-23T16:42:04.199Z,6.50
2017-09-23T16:44:32.472Z,7.20
2017-09-23T16:47:00.767Z,7.03
2017-09-23T16:49:28.295Z,8.00
2017-09-23T16:51:55.837Z,6.23
2017-09-23T16:54:23.339Z,6.83
2017-09-23T16:56:50.873Z,7.13
2017-09-23T16:59:19.392Z,6.47
2017-09-23T17:01:46.887Z,6.47
2017-09-23T17:04:14.414Z,20.87
2017-09-23T17:06:41.920Z,13.17
2017-09-23T17:09:10.218Z,7.33
2017-09-23T17:11:37.730Z,7.70
2017-09-23T17:14:05.229Z,9.00
2017-09-23T17:16:33.513Z,8.70
2017-09-23T17:19:01.048Z,31.73
2017-09-23T17:21:29.338Z,37.33
2017-09-23T17:23:56.910Z,26.00
2017-09-23T17:26:24.459Z,13.10
2017-09-23T17:28:52.012Z,12.03
2017-09-23T17:31:20.296Z,12.00
2017-09-23T17:33:47.840Z,10.10
2017-09-23T17:36:16.101Z,11.37
2017-09-23T17:38:43.621Z,9.33
2017-09-23T17:41:11.124Z,8.37
2017-09-23T17:43:39.407Z,9.23
2017-09-23T17:46:07.706Z,8.37
2017-09-23T17:48:35.196Z,8.93
2017-09-23T17:51:02.711Z,9.87
2017-09-23T17:53:30.232Z,9.00
2017-09-23T17:55:59.261Z,9.20
2017-09-23T17:58:26.788Z,9.87
2017-09-23T18:00:54.288Z,9.80
2017-09-23T18:03:21.818Z,9.60
2017-09-23T18:05:50.086Z,9.80
2017-09-23T18:08:18.407Z,11.07
2017-09-23T18:10:45.927Z,12.10
2017-09-23T18:13:14.208Z,10.57
2017-09-23T18:15:41.757Z,11.63
2017-09-23T18:18:10.030Z,12.60
2017-09-23T18:20:38.336Z,14.33
2017-09-23T18:23:05.875Z,12.30
2017-09-23T18:25:34.191Z,12.80
2017-09-23T18:28:01.705Z,10.90
2017-09-23T18:30:30.453Z,10.87
2017-09-23T18:32:58.736Z,11.60
2017-09-23T18:35:27.808Z,11.37
2017-09-23T18:37:55.320Z,12.10
2017-09-23T18:40:22.857Z,13.40
2017-09-23T18:42:50.378Z,13.53
2017-09-23T18:45:17.882Z,13.20
2017-09-23T18:47:46.202Z,12.57
2017-09-23T18:50:13.710Z,14.07
2017-09-23T18:52:42.028Z,13.13
2017-09-23T18:55:09.561Z,14.07
2017-09-23T18:57:37.863Z,13.13
2017-09-23T19:00:05.417Z,12.30
2017-09-23T19:02:32.937Z,14.60
2017-09-23T19:05:01.265Z,12.93
2017-09-23T19:07:28.789Z,12.87
2017-09-23T19:09:57.064Z,13.37
2017-09-23T19:12:25.365Z,13.73
2017-09-23T19:14:52.898Z,13.73
2017-09-23T19:17:20.451Z,14.03
2017-09-23T19:19:48.796Z,13.30
2017-09-23T19:22:16.351Z,11.90
2017-09-23T19:24:43.883Z,13.90
2017-09-23T19:27:11.384Z,14.00
2017-09-23T19:29:40.421Z,14.73
2017-09-23T19:32:07.938Z,14.40
2017-09-23T19:34:35.483Z,16.00
2017-09-23T19:37:04.486Z,16.27
2017-09-23T19:39:32.765Z,18.20
2017-09-23T19:42:01.109Z,16.57
2017-09-23T19:44:28.648Z,15.00
2017-09-23T19:46:56.173Z,14.70
2017-09-23T19:49:24.457Z,15.00
2017-09-23T19:51:52.015Z,16.07
2017-09-23T19:54:19.669Z,20.87
2017-09-23T19:56:47.972Z,22.23
2017-09-23T19:59:15.491Z,22.60
2017-09-23T20:01:43.767Z,20.03
2017-09-23T20:04:12.097Z,17.60
2017-09-23T20:06:39.625Z,17.00
2017-09-23T20:09:07.166Z,17.83
2017-09-23T20:11:35.444Z,18.23
2017-09-23T20:14:03.772Z,18.50
2017-09-23T20:16:31.306Z,16.00
2017-09-23T20:18:58.811Z,16.87
2017-09-23T20:21:26.364Z,17.97
2017-09-23T20:23:54.677Z,18.33
2017-09-23T20:26:23.050Z,17.13
2017-09-23T20:28:51.360Z,16.77
2017-09-23T20:31:18.882Z,18.30
2017-09-23T20:33:47.148Z,17.17
2017-09-23T20:36:15.551Z,19.20
2017-09-23T20:38:43.064Z,16.17
2017-09-23T20:41:10.582Z,16.40
2017-09-23T20:43:38.145Z,17.97
2017-09-23T20:46:05.650Z,18.27
2017-09-23T20:48:33.948Z,17.57
2017-09-23T20:51:01.458Z,20.60
2017-09-23T20:53:29.018Z,18.23
2017-09-23T20:55:56.533Z,18.80
2017-09-23T20:58:24.045Z,17.37
2017-09-23T21:00:52.374Z,17.43
2017-09-23T21:03:20.077Z,17.43
2017-09-23T21:05:49.113Z,19.23
2017-09-23T21:08:16.622Z,18.30
2017-09-23T21:10:44.151Z,20.23
2017-09-23T21:13:11.669Z,17.80
2017-09-23T21:15:39.999Z,18.73
2017-09-23T21:18:07.529Z,20.13
2017-09-23T21:20:35.058Z,19.90
2017-09-23T21:23:03.380Z,20.70
2017-09-23T21:25:30.905Z,22.50
2017-09-23T21:27:58.434Z,18.60
2017-09-23T21:30:26.770Z,20.03
2017-09-23T21:32:54.310Z,20.27
2017-09-23T21:35:22.067Z,19.70
2017-09-23T21:37:49.624Z,19.00
2017-09-23T21:40:17.166Z,17.87
2017-09-23T21:42:45.478Z,19.43
2017-09-23T21:45:13.019Z,20.73
2017-09-23T21:47:40.534Z,19.93
2017-09-23T21:50:08.063Z,19.30
2017-09-23T21:52:35.583Z,21.30
2017-09-23T21:55:03.896Z,20.63
2017-09-23T21:57:31.402Z,20.77
2017-09-23T21:59:59.670Z,18.83
2017-09-23T22:02:27.211Z,20.33
2017-09-23T22:04:54.709Z,20.30
2017-09-23T22:07:22.257Z,20.40
2017-09-23T22:09:50.534Z,23.57
2017-09-23T22:12:18.839Z,21.47
2017-09-23T22:14:46.356Z,21.40
2017-09-23T22:17:14.676Z,20.57
2017-09-23T22:19:42.188Z,21.00
2017-09-23T22:22:10.468Z,19.80
2017-09-23T22:24:38.760Z,20.27
2017-09-23T22:27:06.261Z,20.97
2017-09-23T22:29:33.786Z,18.90
2017-09-23T22:32:01.308Z,19.93
2017-09-23T22:34:28.832Z,19.30
2017-09-23T22:36:56.354Z,20.70
2017-09-23T22:39:23.846Z,19.93
2017-09-23T22:41:51.371Z,20.50
2017-09-23T22:44:18.884Z,18.63
2017-09-23T22:46:47.184Z,20.27
2017-09-23T22:49:15.456Z,20.10
2017-09-23T22:51:43.749Z,20.83
2017-09-23T22:54:11.272Z,20.73
2017-09-23T22:56:38.817Z,20.00
2017-09-23T22:59:06.337Z,20.07
2017-09-23T23:01:33.836Z,20.07
2017-09-23T23:04:01.381Z,20.40
2017-09-23T23:06:28.887Z,20.30
2017-09-23T23:08:57.173Z,19.63
2017-09-23T23:11:24.692Z,20.80
2017-09-23T23:13:52.993Z,20.70
2017-09-23T23:16:21.272Z,20.10
2017-09-23T23:18:49.593Z,20.40
2017-09-23T23:21:17.138Z,20.70
2017-09-23T23:23:44.681Z,20.60
2017-09-23T23:26:12.205Z,21.40
2017-09-23T23:28:39.723Z,20.77
2017-09-23T23:31:07.238Z,21.03
2017-09-23T23:33:34.800Z,21.07
2017-09-23T23:36:02.333Z,20.20
2017-09-23T23:38:30.631Z,21.10
2017-09-23T23:40:58.913Z,20.43
2017-09-23T23:43:26.432Z,20.43
2017-09-23T23:45:53.960Z,20.50
2017-09-23T23:48:21.487Z,21.43
2017-09-23T23:50:49.013Z,18.57
2017-09-23T23:53:16.509Z,20.47
2017-09-23T23:55:44.039Z,21.03
2017-09-23T23:58:12.308Z,19.67
